createdAt,value
2022-11-19T00:00:36.049Z,2.70
2022-11-19T00:03:02.188Z,3.35
2022-11-19T00:05:28.321Z,3.20
2022-11-19T00:07:54.481Z,3.25
2022-11-19T00:10:20.598Z,3.15
2022-11-19T00:12:46.798Z,3.33
2022-11-19T00:15:12.920Z,3.25
2022-11-19T00:17:39.095Z,3.17
2022-11-19T00:20:05.256Z,3.45
2022-11-19T00:22:31.434Z,3.97
2022-11-19T00:24:57.544Z,3.72
2022-11-19T00:27:23.727Z,3.45
2022-11-19T00:29:49.908Z,3.67
2022-11-19T00:32:16.047Z,3.22
2022-11-19T00:34:42.160Z,4.10
2022-11-19T00:37:08.273Z,3.42
2022-11-19T00:39:34.377Z,3.60
2022-11-19T00:42:00.536Z,3.33
2022-11-19T00:44:26.701Z,2.80
2022-11-19T00:46:52.831Z,3.92
2022-11-19T00:49:19.145Z,3.40
2022-11-19T00:51:45.462Z,3.22
2022-11-19T00:54:11.600Z,3.50
2022-11-19T00:56:37.746Z,3.53
2022-11-19T00:59:03.902Z,2.95
2022-11-19T01:01:33.155Z,3.65
2022-11-19T01:03:59.346Z,3.63
2022-11-19T01:06:25.535Z,3.67
2022-11-19T01:08:51.745Z,4.07
2022-11-19T01:11:17.910Z,3.38
2022-11-19T01:13:44.026Z,3.75
2022-11-19T01:16:10.724Z,3.20
2022-11-19T01:18:36.890Z,3.63
2022-11-19T01:21:03.750Z,3.95
2022-11-19T01:23:29.916Z,3.30
2022-11-19T01:25:56.312Z,3.50
2022-11-19T01:28:22.455Z,3.17
2022-11-19T01:30:48.611Z,3.50
2022-11-19T01:33:14.755Z,3.97
2022-11-19T01:35:40.916Z,3.30
2022-11-19T01:38:07.048Z,3.65
2022-11-19T01:40:33.171Z,3.10
2022-11-19T01:42:59.327Z,3.70
2022-11-19T01:45:25.455Z,3.72
2022-11-19T01:47:51.593Z,4.25
2022-11-19T01:50:17.752Z,3.50
2022-11-19T01:52:43.958Z,3.33
2022-11-19T01:55:10.244Z,3.88
2022-11-19T01:57:36.441Z,4.15
2022-11-19T02:00:02.588Z,3.70
2022-11-19T02:02:28.741Z,3.92
2022-11-19T02:04:54.856Z,4.47
2022-11-19T02:07:21.041Z,4.13
2022-11-19T02:09:47.193Z,3.47
2022-11-19T02:12:13.317Z,4.43
2022-11-19T02:14:39.505Z,3.97
2022-11-19T02:17:05.688Z,4.80
2022-11-19T02:19:31.850Z,4.80
2022-11-19T02:21:57.976Z,4.47
2022-11-19T02:24:24.146Z,4.13
2022-11-19T02:26:50.332Z,5.18
2022-11-19T02:29:16.994Z,5.45
2022-11-19T02:31:43.567Z,5.57
2022-11-19T02:34:09.716Z,6.18
2022-11-19T02:36:35.840Z,5.60
2022-11-19T02:39:02.027Z,6.30
2022-11-19T02:41:28.303Z,5.45
2022-11-19T02:43:54.461Z,4.97
2022-11-19T02:46:20.573Z,5.80
2022-11-19T02:48:46.742Z,5.53
2022-11-19T02:51:12.933Z,5.03
2022-11-19T02:53:39.104Z,6.15
2022-11-19T02:56:05.270Z,6.40
2022-11-19T02:58:31.443Z,5.65
2022-11-19T03:00:57.654Z,5.80
2022-11-19T03:03:23.895Z,5.47
2022-11-19T03:05:50.026Z,6.80
2022-11-19T03:08:16.826Z,5.85
2022-11-19T03:10:43.004Z,6.07
2022-11-19T03:13:09.166Z,5.70
2022-11-19T03:15:35.332Z,6.65
2022-11-19T03:18:01.506Z,6.05
2022-11-19T03:20:27.666Z,6.05
2022-11-19T03:22:53.817Z,5.15
2022-11-19T03:25:19.970Z,6.13
2022-11-19T03:27:46.106Z,6.15
2022-11-19T03:30:12.308Z,6.60
2022-11-19T03:32:38.500Z,6.20
2022-11-19T03:35:04.677Z,6.22
2022-11-19T03:37:30.876Z,6.35
2022-11-19T03:39:57.004Z,6.65
2022-11-19T03:42:23.164Z,6.13
2022-11-19T03:44:49.375Z,6.38
2022-11-19T03:47:15.536Z,6.32
2022-11-19T03:49:41.702Z,5.68
2022-11-19T03:52:07.850Z,5.68
2022-11-19T03:54:33.958Z,6.25
2022-11-19T03:57:00.124Z,5.80
2022-11-19T03:59:29.637Z,5.63
2022-11-19T04:01:56.192Z,5.60
2022-11-19T04:04:22.369Z,6.22
2022-11-19T04:06:48.548Z,5.93
2022-11-19T04:09:14.705Z,6.28
2022-11-19T04:11:40.874Z,6.22
2022-11-19T04:14:07.002Z,6.57
2022-11-19T04:16:33.172Z,6.40
2022-11-19T04:18:59.357Z,5.72
2022-11-19T04:21:25.542Z,6.05
2022-11-19T04:23:51.705Z,5.75
2022-11-19T04:26:17.876Z,5.88
2022-11-19T04:28:44.014Z,6.20
2022-11-19T04:31:13.635Z,5.63
2022-11-19T04:33:43.735Z,6.07
2022-11-19T04:36:09.874Z,5.47
2022-11-19T04:38:36.001Z,5.80
2022-11-19T04:41:02.125Z,7.57
2022-11-19T04:43:28.287Z,5.63
2022-11-19T04:45:54.428Z,6.05
2022-11-19T04:48:20.587Z,5.85
2022-11-19T04:50:46.748Z,6.13
2022-11-19T04:53:12.954Z,5.93
2022-11-19T04:55:39.130Z,5.90
2022-11-19T04:58:05.305Z,5.25
2022-11-19T05:00:31.426Z,5.53
2022-11-19T05:02:57.613Z,5.45
2022-11-19T05:05:23.783Z,5.60
2022-11-19T05:07:49.912Z,5.78
2022-11-19T05:10:16.048Z,6.07
2022-11-19T05:12:42.224Z,6.82
2022-11-19T05:15:08.381Z,6.03
2022-11-19T05:17:34.561Z,5.30
2022-11-19T05:20:00.699Z,6.30
2022-11-19T05:22:26.910Z,6.07
2022-11-19T05:24:53.051Z,6.90
2022-11-19T05:27:19.209Z,6.05
2022-11-19T05:29:45.359Z,6.00
2022-11-19T05:32:11.479Z,5.50
2022-11-19T05:34:37.619Z,6.47
2022-11-19T05:37:03.783Z,6.03
2022-11-19T05:39:29.900Z,6.40
2022-11-19T05:41:56.087Z,6.20
2022-11-19T05:44:22.205Z,6.05
2022-11-19T05:46:48.337Z,6.13
2022-11-19T05:49:14.489Z,6.22
2022-11-19T05:51:40.647Z,5.57
2022-11-19T05:54:06.919Z,6.35
2022-11-19T05:56:33.105Z,5.97
2022-11-19T05:58:59.261Z,6.63
2022-11-19T06:01:25.435Z,6.38
2022-11-19T06:03:51.575Z,6.28
2022-11-19T06:06:17.719Z,5.80
2022-11-19T06:08:43.984Z,6.07
2022-11-19T06:11:10.113Z,6.38
2022-11-19T06:13:36.290Z,5.50
2022-11-19T06:16:02.444Z,6.45
2022-11-19T06:18:28.647Z,6.18
2022-11-19T06:20:54.801Z,6.38
2022-11-19T06:23:20.941Z,5.57
2022-11-19T06:25:47.111Z,6.80
2022-11-19T06:28:13.258Z,6.18
2022-11-19T06:30:39.438Z,5.90
2022-11-19T06:33:05.646Z,7.13
2022-11-19T06:35:31.761Z,6.03
2022-11-19T06:37:57.938Z,6.18
2022-11-19T06:40:24.156Z,5.90
2022-11-19T06:42:51.209Z,5.40
2022-11-19T06:45:17.468Z,6.57
2022-11-19T06:47:43.614Z,6.65
2022-11-19T06:50:09.765Z,5.97
2022-11-19T06:52:35.876Z,6.47
2022-11-19T06:55:02.015Z,6.63
2022-11-19T06:57:28.188Z,5.70
2022-11-19T06:59:54.314Z,6.80
2022-11-19T07:02:21.760Z,6.78
2022-11-19T07:04:48.057Z,6.32
2022-11-19T07:07:14.224Z,5.57
2022-11-19T07:09:40.477Z,6.97
2022-11-19T07:12:06.615Z,5.97
2022-11-19T07:14:32.783Z,6.90
2022-11-19T07:16:58.938Z,6.80
2022-11-19T07:19:25.067Z,7.25
2022-11-19T07:21:51.195Z,6.55
2022-11-19T07:24:17.387Z,6.55
2022-11-19T07:26:43.524Z,5.85
2022-11-19T07:29:09.701Z,7.18
2022-11-19T07:31:35.856Z,7.18
2022-11-19T07:34:01.973Z,6.72
2022-11-19T07:36:28.078Z,6.80
2022-11-19T07:38:54.201Z,6.30
2022-11-19T07:41:20.378Z,5.43
2022-11-19T07:43:46.559Z,6.07
2022-11-19T07:46:12.769Z,6.15
2022-11-19T07:48:38.917Z,6.53
2022-11-19T07:51:05.077Z,6.95
2022-11-19T07:53:31.275Z,6.60
2022-11-19T07:55:57.443Z,6.07
2022-11-19T07:58:23.576Z,6.03
2022-11-19T08:00:49.714Z,6.15
2022-11-19T08:03:15.861Z,5.95
2022-11-19T08:05:41.997Z,5.95
2022-11-19T08:08:08.103Z,5.53
2022-11-19T08:10:34.241Z,6.55
2022-11-19T08:13:00.353Z,5.57
2022-11-19T08:15:26.475Z,5.95
2022-11-19T08:17:52.608Z,5.95
2022-11-19T08:20:18.712Z,6.45
2022-11-19T08:22:44.872Z,4.93
2022-11-19T08:25:10.985Z,5.35
2022-11-19T08:27:37.158Z,6.07
2022-11-19T08:30:03.312Z,5.60
2022-11-19T08:32:29.438Z,6.07
2022-11-19T08:34:55.570Z,6.55
2022-11-19T08:37:21.718Z,5.95
2022-11-19T08:39:47.857Z,6.32
2022-11-19T08:42:13.960Z,5.95
2022-11-19T08:44:40.105Z,6.40
2022-11-19T08:47:06.254Z,5.43
2022-11-19T08:49:32.449Z,4.68
2022-11-19T08:51:58.612Z,4.88
2022-11-19T08:54:24.739Z,5.65
2022-11-19T08:56:50.885Z,5.20
2022-11-19T08:59:17.242Z,5.07
2022-11-19T09:01:43.520Z,6.18
2022-11-19T09:04:09.814Z,5.50
2022-11-19T09:06:35.969Z,5.40
2022-11-19T09:09:02.113Z,5.55
2022-11-19T09:11:28.322Z,5.00
2022-11-19T09:13:54.439Z,5.43
2022-11-19T09:16:20.607Z,5.25
2022-11-19T09:18:46.803Z,5.72
2022-11-19T09:21:12.941Z,5.32
2022-11-19T09:23:39.126Z,6.88
2022-11-19T09:26:05.322Z,8.20
2022-11-19T09:28:31.509Z,8.85
2022-11-19T09:30:57.681Z,9.32
2022-11-19T09:33:23.854Z,8.77
2022-11-19T09:35:50.032Z,10.00
2022-11-19T09:38:16.198Z,9.70
2022-11-19T09:40:42.385Z,9.25
2022-11-19T09:43:13.977Z,9.88
2022-11-19T09:45:41.512Z,9.45
2022-11-19T09:48:07.661Z,8.60
2022-11-19T09:50:33.825Z,10.45
2022-11-19T09:52:59.976Z,10.88
2022-11-19T09:55:26.091Z,10.95
2022-11-19T09:57:52.221Z,10.00
2022-11-19T10:00:18.344Z,10.75
2022-11-19T10:02:44.572Z,9.40
2022-11-19T10:05:10.764Z,9.00
2022-11-19T10:07:36.916Z,9.32
2022-11-19T10:10:05.394Z,9.32
2022-11-19T10:12:35.420Z,9.48
2022-11-19T10:15:01.582Z,9.52
2022-11-19T10:17:27.720Z,10.10
2022-11-19T10:19:53.909Z,10.02
2022-11-19T10:22:20.045Z,10.48
2022-11-19T10:24:46.226Z,9.95
2022-11-19T10:27:12.405Z,10.70
2022-11-19T10:29:38.687Z,10.38
2022-11-19T10:32:04.804Z,10.60
2022-11-19T10:34:30.934Z,9.32
2022-11-19T10:36:57.093Z,8.30
2022-11-19T10:39:23.248Z,10.40
2022-11-19T10:41:49.450Z,9.18
2022-11-19T10:44:15.662Z,8.18
2022-11-19T10:46:41.833Z,8.35
2022-11-19T10:49:07.975Z,8.05
2022-11-19T10:51:34.141Z,8.88
2022-11-19T10:54:00.321Z,9.20
2022-11-19T10:56:26.523Z,8.50
2022-11-19T10:58:52.648Z,8.63
2022-11-19T11:01:18.886Z,9.45
2022-11-19T11:03:45.101Z,9.10
2022-11-19T11:06:11.307Z,10.00
2022-11-19T11:08:37.472Z,9.85
2022-11-19T11:11:03.603Z,10.57
2022-11-19T11:13:29.741Z,7.57
2022-11-19T11:15:55.904Z,8.18
2022-11-19T11:18:22.075Z,6.80
2022-11-19T11:20:48.251Z,7.15
2022-11-19T11:23:14.371Z,6.32
2022-11-19T11:25:40.510Z,6.32
2022-11-19T11:28:06.668Z,6.38
2022-11-19T11:30:32.862Z,5.85
2022-11-19T11:32:59.026Z,6.25
2022-11-19T11:35:25.190Z,6.30
2022-11-19T11:37:51.381Z,6.20
2022-11-19T11:40:17.567Z,6.53
2022-11-19T11:42:43.736Z,6.28
2022-11-19T11:45:09.850Z,5.60
2022-11-19T11:47:36.038Z,6.05
2022-11-19T11:50:02.188Z,6.32
2022-11-19T11:52:28.368Z,6.90
2022-11-19T11:54:54.488Z,7.18
2022-11-19T11:57:20.657Z,7.50
2022-11-19T11:59:46.820Z,7.57
2022-11-19T12:02:13.025Z,8.73
2022-11-19T12:04:39.258Z,10.25
2022-11-19T12:07:05.427Z,11.07
2022-11-19T12:09:31.580Z,11.95
2022-11-19T12:11:57.742Z,13.10
2022-11-19T12:14:23.958Z,13.13
2022-11-19T12:16:50.096Z,12.43
2022-11-19T12:19:16.251Z,13.07
2022-11-19T12:21:42.421Z,13.00
2022-11-19T12:24:08.617Z,11.63
2022-11-19T12:26:34.791Z,10.93
2022-11-19T12:29:00.954Z,11.57
2022-11-19T12:31:29.889Z,11.65
2022-11-19T12:33:56.389Z,11.07
2022-11-19T12:36:22.560Z,11.07
2022-11-19T12:38:48.705Z,11.00
2022-11-19T12:41:14.889Z,9.75
2022-11-19T12:43:41.062Z,11.13
2022-11-19T12:46:07.203Z,9.45
2022-11-19T12:48:33.366Z,9.95
2022-11-19T12:50:59.547Z,8.18
2022-11-19T12:53:25.720Z,10.07
2022-11-19T12:55:51.853Z,9.90
2022-11-19T12:58:18.037Z,9.63
2022-11-19T13:00:44.226Z,10.50
2022-11-19T13:03:10.417Z,9.27
2022-11-19T13:05:36.610Z,9.43
2022-11-19T13:08:02.783Z,9.20
2022-11-19T13:10:28.909Z,8.98
2022-11-19T13:12:55.098Z,9.40
2022-11-19T13:15:21.198Z,9.45
2022-11-19T13:17:47.378Z,9.48
2022-11-19T13:20:13.505Z,24.75
2022-11-19T13:22:39.749Z,26.73
2022-11-19T13:25:05.911Z,14.52
2022-11-19T13:27:32.103Z,8.40
2022-11-19T13:29:58.211Z,8.48
2022-11-19T13:32:24.359Z,6.40
2022-11-19T13:34:50.539Z,12.70
2022-11-19T13:37:16.725Z,8.48
2022-11-19T13:39:42.841Z,6.10
2022-11-19T13:42:09.032Z,7.88
2022-11-19T13:44:35.180Z,6.78
2022-11-19T13:47:01.295Z,9.70
2022-11-19T13:49:27.464Z,5.35
2022-11-19T13:51:53.622Z,6.32
2022-11-19T13:54:19.796Z,6.28
2022-11-19T13:56:46.001Z,5.28
2022-11-19T13:59:12.113Z,4.65
2022-11-19T14:01:38.258Z,5.70
2022-11-19T14:04:04.430Z,5.40
2022-11-19T14:06:30.609Z,6.75
2022-11-19T14:08:56.789Z,5.43
2022-11-19T14:11:22.962Z,6.63
2022-11-19T14:13:49.146Z,6.25
2022-11-19T14:16:15.266Z,6.03
2022-11-19T14:18:41.405Z,5.22
2022-11-19T14:21:07.584Z,5.18
2022-11-19T14:23:33.704Z,4.80
2022-11-19T14:25:59.865Z,4.93
2022-11-19T14:28:26.029Z,11.32
2022-11-19T14:30:52.197Z,5.03
2022-11-19T14:33:18.369Z,5.70
2022-11-19T14:35:44.530Z,7.55
2022-11-19T14:38:10.642Z,7.07
2022-11-19T14:40:40.845Z,10.43
2022-11-19T14:43:09.754Z,8.20
2022-11-19T14:45:35.906Z,5.60
2022-11-19T14:48:02.073Z,6.35
2022-11-19T14:50:28.196Z,4.70
2022-11-19T14:52:54.374Z,6.32
2022-11-19T14:55:20.548Z,6.30
2022-11-19T14:57:48.757Z,15.23
2022-11-19T15:00:14.937Z,13.60
2022-11-19T15:02:41.121Z,7.57
2022-11-19T15:05:07.486Z,5.13
2022-11-19T15:07:33.731Z,5.22
2022-11-19T15:09:59.910Z,5.20
2022-11-19T15:12:26.183Z,4.63
2022-11-19T15:14:52.312Z,6.95
2022-11-19T15:17:18.445Z,6.72
2022-11-19T15:19:44.628Z,5.60
2022-11-19T15:22:10.809Z,5.50
2022-11-19T15:24:37.057Z,5.97
2022-11-19T15:27:03.223Z,5.00
2022-11-19T15:29:32.449Z,7.30
2022-11-19T15:31:58.622Z,7.10
2022-11-19T15:34:24.771Z,9.52
2022-11-19T15:36:51.389Z,5.40
2022-11-19T15:39:17.976Z,6.43
2022-11-19T15:41:44.541Z,5.10
2022-11-19T15:44:10.732Z,6.40
2022-11-19T15:46:36.887Z,5.55
2022-11-19T15:49:03.037Z,5.55
2022-11-19T15:51:29.178Z,6.35
2022-11-19T15:53:55.316Z,5.80
2022-11-19T15:56:21.518Z,6.30
2022-11-19T15:58:47.684Z,7.07
2022-11-19T16:01:13.871Z,6.32
2022-11-19T16:03:40.137Z,6.97
2022-11-19T16:06:06.274Z,6.00
2022-11-19T16:08:32.382Z,7.57
2022-11-19T16:10:58.546Z,7.43
2022-11-19T16:13:24.731Z,9.30
2022-11-19T16:15:51.182Z,7.28
2022-11-19T16:18:20.011Z,7.80
2022-11-19T16:20:46.162Z,13.23
2022-11-19T16:23:12.305Z,7.35
2022-11-19T16:25:38.470Z,9.50
2022-11-19T16:28:04.601Z,7.90
2022-11-19T16:30:30.844Z,12.68
2022-11-19T16:32:56.986Z,10.05
2022-11-19T16:35:23.573Z,9.45
2022-11-19T16:37:49.702Z,8.60
2022-11-19T16:40:16.148Z,8.75
2022-11-19T16:42:42.282Z,8.73
2022-11-19T16:45:08.518Z,9.35
2022-11-19T16:47:34.663Z,9.45
2022-11-19T16:50:00.957Z,11.10
2022-11-19T16:52:27.120Z,10.60
2022-11-19T16:54:53.308Z,7.80
2022-11-19T16:57:19.490Z,9.88
2022-11-19T16:59:46.141Z,10.48
2022-11-19T17:02:12.364Z,9.10
2022-11-19T17:04:38.499Z,9.60
2022-11-19T17:07:04.677Z,10.50
2022-11-19T17:09:30.832Z,10.82
2022-11-19T17:11:56.959Z,9.98
2022-11-19T17:14:23.525Z,8.23
2022-11-19T17:16:49.896Z,8.50
2022-11-19T17:19:16.025Z,8.35
2022-11-19T17:21:42.213Z,7.95
2022-11-19T17:24:08.368Z,9.23
2022-11-19T17:26:34.517Z,9.20
2022-11-19T17:29:00.656Z,8.65
2022-11-19T17:31:26.771Z,14.57
2022-11-19T17:33:52.941Z,9.15
2022-11-19T17:36:19.104Z,8.95
2022-11-19T17:38:45.247Z,8.98
2022-11-19T17:41:11.382Z,8.70
2022-11-19T17:43:37.609Z,8.30
2022-11-19T17:46:03.783Z,6.85
2022-11-19T17:48:29.982Z,5.50
2022-11-19T17:50:56.824Z,5.82
2022-11-19T17:53:22.983Z,6.32
2022-11-19T17:55:49.092Z,6.45
2022-11-19T17:58:15.296Z,6.47
2022-11-19T18:00:41.467Z,8.25
2022-11-19T18:03:07.637Z,7.05
2022-11-19T18:05:33.841Z,7.82
2022-11-19T18:07:59.959Z,6.03
2022-11-19T18:10:26.053Z,5.82
2022-11-19T18:12:52.236Z,5.55
2022-11-19T18:15:18.370Z,5.68
2022-11-19T18:17:44.681Z,7.90
2022-11-19T18:20:10.893Z,5.75
2022-11-19T18:22:37.169Z,6.85
2022-11-19T18:25:03.314Z,4.72
2022-11-19T18:27:29.649Z,5.80
2022-11-19T18:29:56.038Z,8.23
2022-11-19T18:32:22.312Z,7.10
2022-11-19T18:34:48.462Z,8.18
2022-11-19T18:37:14.647Z,6.88
2022-11-19T18:39:40.854Z,8.25
2022-11-19T18:42:07.033Z,8.13
2022-11-19T18:44:33.212Z,8.40
2022-11-19T18:46:59.430Z,7.88
2022-11-19T18:49:25.702Z,8.63
2022-11-19T18:51:52.042Z,10.38
2022-11-19T18:54:18.219Z,9.07
2022-11-19T18:56:44.385Z,9.93
2022-11-19T18:59:10.549Z,9.32
2022-11-19T19:01:36.742Z,8.85
2022-11-19T19:04:02.951Z,8.63
2022-11-19T19:06:29.118Z,8.88
2022-11-19T19:08:55.306Z,8.90
2022-11-19T19:11:21.505Z,9.38
2022-11-19T19:13:47.737Z,8.98
2022-11-19T19:16:13.964Z,9.35
2022-11-19T19:18:42.501Z,8.35
2022-11-19T19:21:08.631Z,9.65
2022-11-19T19:23:34.863Z,8.27
2022-11-19T19:26:01.149Z,8.20
2022-11-19T19:28:27.390Z,8.43
2022-11-19T19:30:53.555Z,9.55
2022-11-19T19:33:19.685Z,9.35
2022-11-19T19:35:46.119Z,8.77
2022-11-19T19:38:12.378Z,9.80
2022-11-19T19:40:38.757Z,8.13
2022-11-19T19:43:04.920Z,8.02
2022-11-19T19:45:31.219Z,9.05
2022-11-19T19:47:57.438Z,8.82
2022-11-19T19:50:23.573Z,8.52
2022-11-19T19:52:49.884Z,10.00
2022-11-19T19:55:16.115Z,8.55
2022-11-19T19:57:42.312Z,8.68
2022-11-19T20:00:17.472Z,9.05
2022-11-19T20:02:46.719Z,8.85
2022-11-19T20:05:13.009Z,8.77
2022-11-19T20:07:39.192Z,8.75
2022-11-19T20:10:05.397Z,8.10
2022-11-19T20:12:31.561Z,8.98
2022-11-19T20:14:57.984Z,9.80
2022-11-19T20:17:24.132Z,9.40
2022-11-19T20:19:50.268Z,9.00
2022-11-19T20:22:16.580Z,8.88
2022-11-19T20:24:42.738Z,8.00
2022-11-19T20:27:08.991Z,8.13
2022-11-19T20:29:35.161Z,8.25
2022-11-19T20:32:01.389Z,8.30
2022-11-19T20:34:27.584Z,11.93
2022-11-19T20:36:53.916Z,27.90
2022-11-19T20:39:20.399Z,13.45
2022-11-19T20:41:46.669Z,9.13
2022-11-19T20:44:12.827Z,10.50
2022-11-19T20:46:39.028Z,9.55
2022-11-19T20:49:05.358Z,8.48
2022-11-19T20:51:31.535Z,9.63
2022-11-19T20:53:57.700Z,9.18
2022-11-19T20:56:23.875Z,9.10
2022-11-19T20:58:50.029Z,9.60
2022-11-19T21:01:16.237Z,10.25
2022-11-19T21:03:42.378Z,9.55
2022-11-19T21:06:08.578Z,10.65
2022-11-19T21:08:34.706Z,9.43
2022-11-19T21:11:00.855Z,10.45
2022-11-19T21:13:27.023Z,8.55
2022-11-19T21:15:53.212Z,11.02
2022-11-19T21:18:22.132Z,9.73
2022-11-19T21:20:50.254Z,10.20
2022-11-19T21:23:16.391Z,10.45
2022-11-19T21:25:42.635Z,9.52
2022-11-19T21:28:08.964Z,12.27
2022-11-19T21:30:35.081Z,11.52
2022-11-19T21:33:01.265Z,10.40
2022-11-19T21:35:27.850Z,11.85
2022-11-19T21:37:54.096Z,11.25
2022-11-19T21:40:20.283Z,14.63
2022-11-19T21:42:46.454Z,10.40
2022-11-19T21:45:12.601Z,9.80
2022-11-19T21:47:38.853Z,11.10
2022-11-19T21:50:05.116Z,11.20
2022-11-19T21:52:31.447Z,10.40
2022-11-19T21:54:57.769Z,9.75
2022-11-19T21:57:23.977Z,11.48
2022-11-19T21:59:50.207Z,11.27
2022-11-19T22:02:16.362Z,10.60
2022-11-19T22:04:42.676Z,10.23
2022-11-19T22:07:09.123Z,9.27
2022-11-19T22:09:37.632Z,10.50
2022-11-19T22:12:03.857Z,9.75
2022-11-19T22:14:30.069Z,9.57
2022-11-19T22:16:56.406Z,8.32
2022-11-19T22:19:22.959Z,5.95
2022-11-19T22:21:49.363Z,6.75
2022-11-19T22:24:15.508Z,9.48
2022-11-19T22:26:41.612Z,6.53
2022-11-19T22:29:07.771Z,7.40
2022-11-19T22:31:33.904Z,7.30
2022-11-19T22:34:00.034Z,7.35
2022-11-19T22:36:26.175Z,8.57
2022-11-19T22:38:52.365Z,9.23
2022-11-19T22:41:18.558Z,8.32
2022-11-19T22:43:44.728Z,7.03
2022-11-19T22:46:10.910Z,6.07
2022-11-19T22:48:37.043Z,5.05
2022-11-19T22:51:03.158Z,6.25
2022-11-19T22:53:29.316Z,4.78
2022-11-19T22:55:55.554Z,5.93
2022-11-19T22:58:21.705Z,4.95
